Emsworth, Pennsylvania
Current Conditions -  °F | °C
As of 9:51 AM on Thursday 30 Oct 2014 (Local Time) from KPIT Reporting Station
Scattered Clouds Scattered Clouds  
Wind Chill: 38°   Ceiling: Unl
Heat Index: 42°   Visibility: 10mi
Dew Point: 38°   Wind: 7mph
Humidity: 85%   Direction: 270°W
Pressure: 30.1"   Gusts: NA
Location:  40.5069°N, 80.0715°W
Report Text: KPIT 301351Z 27006KT 10SM FEW028 SCT050 06/03 A3010 RMK AO2 SLP206 T00560033
Loading
Personal Weather Stations






























Interactive Weather Map
Tropical Storm Tracking
New forecast layout! Learn more

10-Day Weather Forecast

Advertisements
Track Severe Weather on mobile